sensor_id;sensor_type;location;lat;lon;timestamp;P1;durP1;ratioP1;P2;durP2;ratioP2
67804;SDS011;54603;45.638;11.714;2023-05-07T00:01:42;6.50;;;4.20;;
67804;SDS011;54603;45.638;11.714;2023-05-07T00:04:07;5.70;;;4.30;;
67804;SDS011;54603;45.638;11.714;2023-05-07T00:06:34;6.70;;;4.20;;
67804;SDS011;54603;45.638;11.714;2023-05-07T00:08:59;7.80;;;4.50;;
67804;SDS011;54603;45.638;11.714;2023-05-07T00:11:26;5.50;;;4.40;;
67804;SDS011;54603;45.638;11.714;2023-05-07T00:13:53;4.90;;;4.40;;
67804;SDS011;54603;45.638;11.714;2023-05-07T00:16:19;4.90;;;4.40;;
67804;SDS011;54603;45.638;11.714;2023-05-07T00:18:44;5.40;;;4.50;;
67804;SDS011;54603;45.638;11.714;2023-05-07T00:21:10;5.40;;;4.30;;
67804;SDS011;54603;45.638;11.714;2023-05-07T00:23:36;5.40;;;4.60;;
67804;SDS011;54603;45.638;11.714;2023-05-07T00:26:02;5.40;;;4.10;;
67804;SDS011;54603;45.638;11.714;2023-05-07T00:28:28;4.80;;;4.30;;
67804;SDS011;54603;45.638;11.714;2023-05-07T00:30:53;5.50;;;4.20;;
67804;SDS011;54603;45.638;11.714;2023-05-07T00:33:19;5.70;;;4.10;;
67804;SDS011;54603;45.638;11.714;2023-05-07T00:35:46;5.00;;;3.90;;
67804;SDS011;54603;45.638;11.714;2023-05-07T00:38:12;5.20;;;4.10;;
67804;SDS011;54603;45.638;11.714;2023-05-07T00:40:37;5.10;;;4.20;;
67804;SDS011;54603;45.638;11.714;2023-05-07T00:43:03;5.10;;;4.40;;
67804;SDS011;54603;45.638;11.714;2023-05-07T00:45:29;5.00;;;4.20;;
67804;SDS011;54603;45.638;11.714;2023-05-07T00:47:59;6.30;;;4.40;;
67804;SDS011;54603;45.638;11.714;2023-05-07T00:50:25;4.40;;;3.90;;
67804;SDS011;54603;45.638;11.714;2023-05-07T00:52:52;5.70;;;4.20;;
67804;SDS011;54603;45.638;11.714;2023-05-07T00:55:18;5.40;;;4.10;;
67804;SDS011;54603;45.638;11.714;2023-05-07T00:57:43;5.80;;;4.30;;
67804;SDS011;54603;45.638;11.714;2023-05-07T01:00:10;4.00;;;3.70;;
67804;SDS011;54603;45.638;11.714;2023-05-07T01:02:40;4.30;;;3.50;;
67804;SDS011;54603;45.638;11.714;2023-05-07T01:05:16;4.90;;;4.00;;
67804;SDS011;54603;45.638;11.714;2023-05-07T01:07:42;4.50;;;4.10;;
67804;SDS011;54603;45.638;11.714;2023-05-07T01:10:23;6.00;;;4.20;;
67804;SDS011;54603;45.638;11.714;2023-05-07T01:12:49;4.50;;;3.90;;
67804;SDS011;54603;45.638;11.714;2023-05-07T01:15:15;5.00;;;4.10;;
67804;SDS011;54603;45.638;11.714;2023-05-07T01:17:41;5.40;;;4.40;;
67804;SDS011;54603;45.638;11.714;2023-05-07T01:20:07;7.20;;;4.60;;
67804;SDS011;54603;45.638;11.714;2023-05-07T01:22:35;4.60;;;4.10;;
67804;SDS011;54603;45.638;11.714;2023-05-07T01:25:02;4.50;;;4.10;;
67804;SDS011;54603;45.638;11.714;2023-05-07T01:27:29;6.20;;;4.30;;
67804;SDS011;54603;45.638;11.714;2023-05-07T01:29:55;6.40;;;4.20;;
67804;SDS011;54603;45.638;11.714;2023-05-07T01:32:23;4.70;;;4.20;;
67804;SDS011;54603;45.638;11.714;2023-05-07T01:34:53;6.00;;;4.20;;
67804;SDS011;54603;45.638;11.714;2023-05-07T01:37:19;4.60;;;4.00;;
67804;SDS011;54603;45.638;11.714;2023-05-07T01:39:46;4.60;;;3.80;;
67804;SDS011;54603;45.638;11.714;2023-05-07T01:42:13;4.30;;;3.90;;
67804;SDS011;54603;45.638;11.714;2023-05-07T01:44:38;4.60;;;4.00;;
67804;SDS011;54603;45.638;11.714;2023-05-07T01:47:04;4.50;;;4.10;;
67804;SDS011;54603;45.638;11.714;2023-05-07T01:49:31;5.10;;;4.30;;
67804;SDS011;54603;45.638;11.714;2023-05-07T01:51:57;4.90;;;4.40;;
67804;SDS011;54603;45.638;11.714;2023-05-07T01:54:26;6.50;;;4.10;;
67804;SDS011;54603;45.638;11.714;2023-05-07T01:56:58;5.00;;;4.10;;
67804;SDS011;54603;45.638;11.714;2023-05-07T01:59:24;4.90;;;4.10;;
67804;SDS011;54603;45.638;11.714;2023-05-07T02:01:50;4.20;;;3.80;;
67804;SDS011;54603;45.638;11.714;2023-05-07T02:04:15;4.30;;;3.90;;
67804;SDS011;54603;45.638;11.714;2023-05-07T02:06:41;4.60;;;4.10;;
67804;SDS011;54603;45.638;11.714;2023-05-07T02:09:06;4.70;;;4.20;;
67804;SDS011;54603;45.638;11.714;2023-05-07T02:11:34;5.50;;;3.70;;
67804;SDS011;54603;45.638;11.714;2023-05-07T02:13:59;4.30;;;3.90;;
67804;SDS011;54603;45.638;11.714;2023-05-07T02:16:25;4.40;;;3.60;;
67804;SDS011;54603;45.638;11.714;2023-05-07T02:18:50;4.10;;;3.80;;
67804;SDS011;54603;45.638;11.714;2023-05-07T02:21:16;4.30;;;3.70;;
67804;SDS011;54603;45.638;11.714;2023-05-07T02:23:41;4.50;;;4.00;;
67804;SDS011;54603;45.638;11.714;2023-05-07T02:26:07;4.60;;;3.90;;
67804;SDS011;54603;45.638;11.714;2023-05-07T02:28:32;4.40;;;3.90;;
67804;SDS011;54603;45.638;11.714;2023-05-07T02:31:02;5.10;;;3.90;;
67804;SDS011;54603;45.638;11.714;2023-05-07T02:33:28;4.50;;;3.90;;
67804;SDS011;54603;45.638;11.714;2023-05-07T02:35:53;4.30;;;3.90;;
67804;SDS011;54603;45.638;11.714;2023-05-07T02:38:20;4.30;;;3.80;;
67804;SDS011;54603;45.638;11.714;2023-05-07T02:40:45;4.50;;;3.80;;
67804;SDS011;54603;45.638;11.714;2023-05-07T02:43:11;5.70;;;4.10;;
67804;SDS011;54603;45.638;11.714;2023-05-07T02:45:36;4.90;;;3.90;;
67804;SDS011;54603;45.638;11.714;2023-05-07T02:48:03;4.50;;;3.80;;
67804;SDS011;54603;45.638;11.714;2023-05-07T02:50:30;4.10;;;3.60;;
67804;SDS011;54603;45.638;11.714;2023-05-07T02:52:57;4.10;;;3.60;;
67804;SDS011;54603;45.638;11.714;2023-05-07T02:55:23;4.60;;;4.20;;
67804;SDS011;54603;45.638;11.714;2023-05-07T02:57:49;4.60;;;4.20;;
67804;SDS011;54603;45.638;11.714;2023-05-07T03:00:16;4.80;;;3.80;;
67804;SDS011;54603;45.638;11.714;2023-05-07T03:02:44;4.70;;;4.00;;
67804;SDS011;54603;45.638;11.714;2023-05-07T03:05:10;5.70;;;4.20;;
67804;SDS011;54603;45.638;11.714;2023-05-07T03:07:37;4.60;;;4.20;;
67804;SDS011;54603;45.638;11.714;2023-05-07T03:10:02;5.10;;;4.60;;
67804;SDS011;54603;45.638;11.714;2023-05-07T03:12:29;4.70;;;4.20;;
67804;SDS011;54603;45.638;11.714;2023-05-07T03:14:54;4.90;;;4.40;;
67804;SDS011;54603;45.638;11.714;2023-05-07T03:17:21;4.60;;;4.10;;
67804;SDS011;54603;45.638;11.714;2023-05-07T03:19:47;4.40;;;4.00;;
67804;SDS011;54603;45.638;11.714;2023-05-07T03:22:12;4.80;;;4.10;;
67804;SDS011;54603;45.638;11.714;2023-05-07T03:24:38;4.30;;;3.90;;
67804;SDS011;54603;45.638;11.714;2023-05-07T03:27:04;4.10;;;3.70;;
67804;SDS011;54603;45.638;11.714;2023-05-07T03:29:30;5.60;;;3.70;;
67804;SDS011;54603;45.638;11.714;2023-05-07T03:31:55;5.40;;;4.20;;
67804;SDS011;54603;45.638;11.714;2023-05-07T03:34:21;5.60;;;3.90;;
67804;SDS011;54603;45.638;11.714;2023-05-07T03:36:50;4.80;;;4.00;;
67804;SDS011;54603;45.638;11.714;2023-05-07T03:39:16;5.60;;;4.20;;
67804;SDS011;54603;45.638;11.714;2023-05-07T03:41:42;5.90;;;4.20;;
67804;SDS011;54603;45.638;11.714;2023-05-07T03:44:07;4.60;;;3.70;;
67804;SDS011;54603;45.638;11.714;2023-05-07T03:46:33;5.00;;;3.70;;
67804;SDS011;54603;45.638;11.714;2023-05-07T03:48:59;3.80;;;3.50;;
67804;SDS011;54603;45.638;11.714;2023-05-07T03:51:25;4.60;;;3.80;;
67804;SDS011;54603;45.638;11.714;2023-05-07T03:53:50;4.60;;;4.10;;
67804;SDS011;54603;45.638;11.714;2023-05-07T03:56:18;4.80;;;3.90;;
67804;SDS011;54603;45.638;11.714;2023-05-07T03:58:44;4.20;;;3.80;;
67804;SDS011;54603;45.638;11.714;2023-05-07T04:01:10;4.00;;;3.60;;
67804;SDS011;54603;45.638;11.714;2023-05-07T04:03:36;3.90;;;3.50;;
67804;SDS011;54603;45.638;11.714;2023-05-07T04:06:02;3.80;;;3.40;;
67804;SDS011;54603;45.638;11.714;2023-05-07T04:08:27;3.70;;;3.30;;
67804;SDS011;54603;45.638;11.714;2023-05-07T04:10:56;4.40;;;3.80;;
67804;SDS011;54603;45.638;11.714;2023-05-07T04:13:22;4.10;;;3.60;;
67804;SDS011;54603;45.638;11.714;2023-05-07T04:15:48;4.20;;;3.50;;
67804;SDS011;54603;45.638;11.714;2023-05-07T04:18:14;5.00;;;3.80;;
67804;SDS011;54603;45.638;11.714;2023-05-07T04:20:40;6.80;;;3.70;;
67804;SDS011;54603;45.638;11.714;2023-05-07T04:23:06;4.40;;;3.60;;
67804;SDS011;54603;45.638;11.714;2023-05-07T04:25:32;4.60;;;3.80;;
67804;SDS011;54603;45.638;11.714;2023-05-07T04:27:58;4.80;;;4.10;;
67804;SDS011;54603;45.638;11.714;2023-05-07T04:30:23;4.20;;;3.80;;
67804;SDS011;54603;45.638;11.714;2023-05-07T04:32:49;4.80;;;3.70;;
67804;SDS011;54603;45.638;11.714;2023-05-07T04:35:15;5.60;;;4.20;;
67804;SDS011;54603;45.638;11.714;2023-05-07T04:37:41;4.00;;;3.60;;
67804;SDS011;54603;45.638;11.714;2023-05-07T04:40:06;4.00;;;3.60;;
67804;SDS011;54603;45.638;11.714;2023-05-07T04:42:33;4.10;;;3.70;;
67804;SDS011;54603;45.638;11.714;2023-05-07T04:44:58;4.60;;;4.20;;
67804;SDS011;54603;45.638;11.714;2023-05-07T04:47:25;4.10;;;3.50;;
67804;SDS011;54603;45.638;11.714;2023-05-07T04:49:50;3.90;;;3.50;;
67804;SDS011;54603;45.638;11.714;2023-05-07T04:52:16;3.90;;;3.40;;
67804;SDS011;54603;45.638;11.714;2023-05-07T04:54:41;4.70;;;3.50;;
67804;SDS011;54603;45.638;11.714;2023-05-07T04:57:07;7.30;;;4.10;;
67804;SDS011;54603;45.638;11.714;2023-05-07T04:59:33;5.60;;;3.90;;
